createdAt,value
2022-10-25T00:01:36.573Z,13.50
2022-10-25T00:04:41.073Z,13.50
2022-10-25T00:07:45.772Z,13.50
2022-10-25T00:10:50.042Z,13.50
2022-10-25T00:13:58.352Z,13.50
2022-10-25T00:17:02.965Z,13.50
2022-10-25T00:20:07.667Z,13.50
2022-10-25T00:23:11.654Z,13.50
2022-10-25T00:26:16.091Z,13.50
2022-10-25T00:29:20.747Z,13.50
2022-10-25T00:32:25.068Z,13.50
2022-10-25T00:35:29.499Z,13.50
2022-10-25T00:38:34.301Z,13.50
2022-10-25T00:41:38.388Z,13.40
2022-10-25T00:44:54.728Z,13.40
2022-10-25T00:48:06.437Z,13.40
2022-10-25T00:51:10.905Z,13.40
2022-10-25T00:57:35.620Z,13.40
2022-10-25T01:00:39.584Z,13.30
2022-10-25T01:03:46.520Z,13.30
2022-10-25T01:06:52.441Z,13.30
2022-10-25T01:09:57.978Z,13.30
2022-10-25T01:13:03.218Z,13.30
2022-10-25T01:16:19.773Z,13.30
2022-10-25T01:19:57.840Z,13.20
2022-10-25T01:23:30.079Z,13.20
2022-10-25T01:26:34.322Z,13.20
2022-10-25T01:30:14.498Z,13.20
2022-10-25T01:33:31.988Z,13.10
2022-10-25T01:36:48.618Z,13.10
2022-10-25T01:40:13.871Z,13.10
2022-10-25T01:43:41.477Z,13.20
2022-10-25T01:46:54.651Z,13.10
2022-10-25T01:50:14.209Z,13.10
2022-10-25T01:53:18.399Z,13.10
2022-10-25T01:56:36.729Z,13.00
2022-10-25T02:00:15.510Z,12.90
2022-10-25T02:03:27.274Z,13.00
2022-10-25T02:06:43.530Z,12.90
2022-10-25T02:10:07.133Z,12.90
2022-10-25T02:13:28.222Z,12.90
2022-10-25T02:16:44.832Z,12.80
2022-10-25T02:19:53.127Z,12.80
2022-10-25T02:22:59.711Z,12.90
2022-10-25T02:26:06.922Z,12.90
2022-10-25T02:29:13.590Z,12.90
2022-10-25T02:32:17.770Z,13.00
2022-10-25T02:35:22.448Z,13.00
2022-10-25T02:38:26.875Z,13.00
2022-10-25T02:41:31.384Z,13.00
2022-10-25T02:44:35.865Z,13.00
2022-10-25T02:47:40.459Z,13.00
2022-10-25T02:50:44.802Z,13.00
2022-10-25T02:53:49.397Z,13.00
2022-10-25T02:56:54.167Z,13.00
2022-10-25T02:59:58.116Z,13.00
2022-10-25T03:03:02.287Z,13.00
2022-10-25T03:06:08.556Z,13.00
2022-10-25T03:09:12.722Z,13.00
2022-10-25T03:12:16.995Z,13.00
2022-10-25T03:15:21.322Z,12.90
2022-10-25T03:18:25.787Z,12.90
2022-10-25T03:21:30.389Z,12.90
2022-10-25T03:24:34.823Z,12.90
2022-10-25T03:27:39.225Z,12.80
2022-10-25T03:30:43.633Z,12.90
2022-10-25T03:33:48.002Z,12.90
2022-10-25T03:36:52.508Z,12.90
2022-10-25T03:39:56.762Z,12.90
2022-10-25T03:43:01.278Z,12.90
2022-10-25T03:46:05.744Z,13.00
2022-10-25T03:49:09.855Z,13.00
2022-10-25T03:52:14.157Z,12.90
2022-10-25T03:55:18.497Z,12.90
2022-10-25T03:58:22.985Z,12.90
2022-10-25T04:01:27.817Z,12.90
2022-10-25T04:04:32.034Z,12.90
2022-10-25T04:07:36.556Z,12.80
2022-10-25T04:10:41.014Z,12.80
2022-10-25T04:13:45.685Z,12.80
2022-10-25T04:16:50.140Z,12.70
2022-10-25T04:19:54.669Z,12.70
2022-10-25T04:22:59.174Z,12.70
2022-10-25T04:26:03.404Z,12.80
2022-10-25T04:29:08.011Z,12.80
2022-10-25T04:32:12.779Z,12.80
2022-10-25T04:35:17.249Z,12.80
2022-10-25T04:38:21.965Z,12.80
2022-10-25T04:41:26.182Z,12.80
2022-10-25T04:44:30.527Z,12.80
2022-10-25T04:47:35.406Z,12.70
2022-10-25T04:50:40.168Z,12.70
2022-10-25T04:53:44.466Z,12.60
2022-10-25T04:56:48.877Z,12.60
2022-10-25T04:59:53.419Z,12.50
2022-10-25T05:02:57.968Z,12.60
2022-10-25T05:06:19.641Z,12.60
2022-10-25T05:09:23.879Z,12.60
2022-10-25T05:12:28.184Z,12.60
2022-10-25T05:15:32.472Z,12.70
2022-10-25T05:18:37.075Z,12.70
2022-10-25T05:21:41.435Z,12.70
2022-10-25T05:24:45.782Z,12.70
2022-10-25T05:27:50.354Z,12.70
2022-10-25T05:30:54.634Z,12.70
2022-10-25T05:34:01.048Z,12.70
2022-10-25T05:37:06.055Z,12.70
2022-10-25T05:40:11.508Z,12.70
2022-10-25T05:43:15.601Z,12.70
2022-10-25T05:46:23.462Z,12.80
2022-10-25T05:49:27.768Z,12.80
2022-10-25T05:52:32.009Z,12.80
2022-10-25T05:55:36.919Z,12.80
2022-10-25T05:58:42.080Z,12.80
2022-10-25T06:01:47.385Z,12.90
2022-10-25T06:04:52.546Z,12.90
2022-10-25T06:07:57.161Z,12.90
2022-10-25T06:11:13.507Z,12.90
2022-10-25T06:14:17.727Z,13.00
2022-10-25T06:17:22.181Z,13.00
2022-10-25T06:20:26.489Z,13.00
2022-10-25T06:23:36.002Z,13.00
2022-10-25T06:26:40.105Z,13.00
2022-10-25T06:29:44.455Z,13.00
2022-10-25T06:32:49.233Z,13.10
2022-10-25T06:35:58.768Z,13.10
2022-10-25T06:39:06.677Z,13.10
2022-10-25T06:42:11.466Z,13.10
2022-10-25T06:45:17.061Z,13.10
2022-10-25T06:48:21.754Z,13.10
2022-10-25T06:51:28.170Z,13.20
2022-10-25T06:54:32.492Z,13.20
2022-10-25T06:57:36.902Z,13.20
2022-10-25T07:00:43.706Z,13.20
2022-10-25T07:03:51.080Z,13.20
2022-10-25T07:06:55.506Z,13.20
2022-10-25T07:10:00.046Z,13.20
2022-10-25T07:13:04.665Z,13.20
2022-10-25T07:16:13.700Z,13.20
2022-10-25T07:19:18.131Z,13.20
2022-10-25T07:22:22.653Z,13.20
2022-10-25T07:25:27.102Z,13.20
2022-10-25T07:28:31.470Z,13.20
2022-10-25T07:31:39.812Z,13.20
2022-10-25T07:34:43.978Z,13.30
2022-10-25T07:37:48.618Z,13.30
2022-10-25T07:40:59.840Z,13.40
2022-10-25T07:44:04.307Z,13.40
2022-10-25T07:47:08.467Z,13.50
2022-10-25T07:50:13.075Z,13.50
2022-10-25T07:53:17.629Z,13.50
2022-10-25T07:56:23.600Z,13.60
2022-10-25T07:59:28.714Z,13.60
2022-10-25T08:02:33.088Z,13.60
2022-10-25T08:05:37.368Z,13.70
2022-10-25T08:08:41.959Z,13.80
2022-10-25T08:11:46.147Z,14.10
2022-10-25T08:14:50.996Z,14.30
2022-10-25T08:18:02.480Z,14.30
2022-10-25T08:21:06.801Z,14.20
2022-10-25T08:24:11.237Z,14.60
2022-10-25T08:27:15.448Z,14.90
2022-10-25T08:30:20.328Z,15.10
2022-10-25T08:33:24.955Z,15.00
2022-10-25T08:36:29.616Z,14.70
2022-10-25T08:39:34.096Z,14.60
2022-10-25T08:42:53.755Z,14.70
2022-10-25T08:46:02.395Z,14.70
2022-10-25T08:49:35.015Z,14.80
2022-10-25T08:52:48.400Z,14.40
2022-10-25T08:56:11.641Z,14.40
2022-10-25T08:59:27.364Z,14.20
2022-10-25T09:02:38.013Z,14.10
2022-10-25T09:05:53.285Z,14.10
2022-10-25T09:09:17.663Z,14.20
2022-10-25T09:12:32.919Z,14.30
2022-10-25T09:15:42.870Z,14.20
2022-10-25T09:18:59.521Z,14.30
2022-10-25T09:22:10.037Z,14.60
2022-10-25T09:25:23.082Z,15.20
2022-10-25T09:28:38.897Z,15.50
2022-10-25T09:31:49.789Z,15.50
2022-10-25T09:34:54.782Z,15.70
2022-10-25T09:38:08.346Z,15.80
2022-10-25T09:41:24.050Z,15.40
2022-10-25T09:44:40.312Z,15.00
2022-10-25T09:48:07.515Z,14.90
2022-10-25T09:51:37.991Z,14.60
2022-10-25T09:54:51.253Z,14.40
2022-10-25T09:57:55.702Z,14.40
2022-10-25T10:01:17.911Z,14.30
2022-10-25T10:04:43.726Z,14.30
2022-10-25T10:07:49.967Z,14.00
2022-10-25T10:10:55.073Z,14.10
2022-10-25T10:14:44.316Z,14.40
2022-10-25T10:18:21.113Z,14.60
2022-10-25T10:21:25.566Z,14.30
2022-10-25T10:24:33.603Z,14.40
2022-10-25T10:27:37.822Z,14.20
2022-10-25T10:30:42.131Z,14.10
2022-10-25T10:33:50.929Z,14.20
2022-10-25T10:37:22.724Z,14.20
2022-10-25T10:40:27.157Z,14.10
2022-10-25T10:43:34.185Z,14.00
2022-10-25T10:46:45.213Z,14.10
2022-10-25T10:49:49.367Z,14.00
2022-10-25T10:53:06.869Z,13.90
2022-10-25T10:56:21.447Z,14.00
2022-10-25T10:59:33.844Z,14.00
2022-10-25T11:02:41.179Z,14.10
2022-10-25T11:05:53.726Z,14.30
2022-10-25T11:09:10.008Z,14.40
2022-10-25T11:12:14.865Z,14.50
2022-10-25T11:15:19.659Z,14.60
2022-10-25T11:18:45.282Z,14.90
2022-10-25T11:22:32.915Z,14.90
2022-10-25T11:25:43.421Z,15.00
2022-10-25T11:29:07.961Z,14.80
2022-10-25T11:32:51.388Z,14.60
2022-10-25T11:36:23.702Z,14.60
2022-10-25T11:39:27.663Z,14.70
2022-10-25T11:42:55.871Z,14.80
2022-10-25T11:46:18.688Z,14.80
2022-10-25T11:49:44.521Z,15.40
2022-10-25T11:53:03.488Z,15.30
2022-10-25T11:56:28.153Z,15.60
2022-10-25T11:59:40.739Z,15.20
2022-10-25T12:03:24.152Z,14.80
2022-10-25T12:06:51.622Z,14.50
2022-10-25T12:10:17.295Z,14.50
2022-10-25T12:13:45.107Z,14.50
2022-10-25T12:16:49.995Z,14.40
2022-10-25T12:19:57.498Z,14.40
2022-10-25T12:23:05.323Z,14.40
2022-10-25T12:26:35.746Z,13.60
2022-10-25T12:29:44.032Z,13.70
2022-10-25T12:32:57.563Z,13.80
2022-10-25T12:36:17.958Z,14.10
2022-10-25T12:39:40.142Z,14.20
2022-10-25T12:42:49.539Z,14.20
2022-10-25T12:46:09.817Z,14.40
2022-10-25T12:49:43.297Z,15.70
2022-10-25T12:53:13.563Z,16.50
2022-10-25T12:56:26.346Z,16.80
2022-10-25T12:59:55.754Z,16.70
2022-10-25T13:03:19.586Z,16.90
2022-10-25T13:06:33.029Z,15.70
2022-10-25T13:09:38.662Z,15.30
2022-10-25T13:12:57.331Z,15.10
2022-10-25T13:16:03.458Z,14.70
2022-10-25T13:19:49.784Z,14.60
2022-10-25T13:22:53.955Z,14.50
2022-10-25T13:25:58.095Z,14.30
2022-10-25T13:29:24.278Z,14.20
2022-10-25T13:32:30.964Z,14.20
2022-10-25T13:35:38.039Z,14.20
2022-10-25T13:38:42.572Z,14.20
2022-10-25T13:41:47.107Z,14.30
2022-10-25T13:45:03.601Z,14.30
2022-10-25T13:48:31.080Z,14.20
2022-10-25T13:51:40.174Z,14.20
2022-10-25T13:54:50.488Z,14.10
2022-10-25T13:57:56.065Z,14.20
2022-10-25T14:01:15.868Z,14.20
2022-10-25T14:04:35.229Z,14.00
2022-10-25T14:07:47.956Z,14.00
2022-10-25T14:10:53.207Z,13.80
2022-10-25T14:14:18.373Z,13.80
2022-10-25T14:17:42.219Z,13.80
2022-10-25T14:20:49.100Z,13.80
2022-10-25T14:23:54.367Z,13.80
2022-10-25T14:27:00.911Z,13.80
2022-10-25T14:30:21.236Z,13.90
2022-10-25T14:33:39.265Z,14.10
2022-10-25T14:36:50.159Z,14.60
2022-10-25T14:39:54.773Z,14.60
2022-10-25T14:43:22.348Z,14.80
2022-10-25T14:46:29.994Z,14.40
2022-10-25T14:49:34.275Z,14.30
2022-10-25T14:52:38.670Z,14.10
2022-10-25T14:55:52.700Z,14.00
2022-10-25T14:58:58.103Z,13.90
2022-10-25T15:02:10.292Z,13.80
2022-10-25T15:05:18.732Z,13.70
2022-10-25T15:08:25.679Z,13.70
2022-10-25T15:11:31.194Z,13.60
2022-10-25T15:14:36.020Z,13.60
2022-10-25T15:17:50.833Z,13.60
2022-10-25T15:21:10.354Z,13.60
2022-10-25T15:24:26.577Z,13.50
2022-10-25T15:27:36.559Z,13.50
2022-10-25T15:30:49.445Z,13.50
2022-10-25T15:34:01.972Z,13.50
2022-10-25T15:37:06.514Z,13.50
2022-10-25T15:40:15.856Z,13.50
2022-10-25T15:43:19.898Z,13.50
2022-10-25T15:46:33.503Z,13.50
2022-10-25T15:49:38.023Z,13.50
2022-10-25T15:52:43.004Z,13.50
2022-10-25T15:55:49.001Z,13.40
2022-10-25T15:58:53.427Z,13.40
2022-10-25T16:01:58.699Z,13.40
2022-10-25T16:05:03.285Z,13.30
2022-10-25T16:08:08.601Z,13.40
2022-10-25T16:11:16.961Z,13.40
2022-10-25T16:14:24.275Z,13.40
2022-10-25T16:17:28.574Z,13.40
2022-10-25T16:20:32.858Z,13.30
2022-10-25T16:23:37.200Z,13.30
2022-10-25T16:26:47.407Z,13.30
2022-10-25T16:29:51.416Z,13.30
2022-10-25T16:32:55.614Z,13.20
2022-10-25T16:36:00.016Z,13.20
2022-10-25T16:39:04.867Z,13.20
2022-10-25T16:42:31.159Z,13.20
2022-10-25T16:45:37.369Z,13.10
2022-10-25T16:48:42.009Z,13.10
2022-10-25T16:51:46.533Z,13.10
2022-10-25T16:54:51.036Z,13.10
2022-10-25T16:57:59.404Z,13.10
2022-10-25T17:01:04.868Z,13.20
2022-10-25T17:04:10.500Z,13.10
2022-10-25T17:07:15.458Z,13.20
2022-10-25T17:10:22.902Z,13.20
2022-10-25T17:13:30.619Z,13.30
2022-10-25T17:16:35.081Z,13.20
2022-10-25T17:19:44.987Z,13.20
2022-10-25T17:22:50.435Z,13.20
2022-10-25T17:25:59.078Z,13.20
2022-10-25T17:29:04.009Z,13.10
2022-10-25T17:32:08.133Z,13.10
2022-10-25T17:35:13.191Z,13.10
2022-10-25T17:38:17.626Z,13.10
2022-10-25T17:41:23.116Z,13.20
2022-10-25T17:44:27.455Z,13.20
2022-10-25T17:47:31.854Z,13.20
2022-10-25T17:50:40.950Z,13.20
2022-10-25T17:53:52.655Z,13.20
2022-10-25T17:57:00.956Z,13.30
2022-10-25T18:00:05.852Z,13.20
2022-10-25T18:03:16.479Z,13.20
2022-10-25T18:09:31.883Z,13.10
2022-10-25T18:12:36.303Z,13.10
2022-10-25T18:15:40.848Z,13.10
2022-10-25T18:18:45.332Z,13.10
2022-10-25T18:21:50.109Z,13.20
2022-10-25T18:24:54.390Z,13.10
2022-10-25T18:27:58.808Z,13.10
2022-10-25T18:31:05.898Z,13.20
2022-10-25T18:34:10.092Z,13.20
2022-10-25T18:37:14.474Z,13.20
2022-10-25T18:40:18.923Z,13.10
2022-10-25T18:43:24.474Z,13.20
2022-10-25T18:46:30.790Z,13.20
2022-10-25T18:49:34.997Z,13.10
2022-10-25T18:52:39.491Z,13.10
2022-10-25T18:55:51.252Z,13.10
2022-10-25T18:58:59.653Z,13.10
2022-10-25T19:02:04.228Z,13.10
2022-10-25T19:05:09.944Z,13.10
2022-10-25T19:08:14.170Z,13.10
2022-10-25T19:11:18.848Z,13.10
2022-10-25T19:14:23.015Z,13.10
2022-10-25T19:17:27.545Z,13.00
2022-10-25T19:20:32.017Z,13.00
2022-10-25T19:23:39.267Z,13.00
2022-10-25T19:26:44.760Z,12.90
2022-10-25T19:29:49.274Z,12.90
2022-10-25T19:32:53.940Z,13.00
2022-10-25T19:36:03.071Z,12.90
2022-10-25T19:39:07.579Z,12.90
2022-10-25T19:42:11.935Z,12.90
2022-10-25T19:45:16.639Z,12.80
2022-10-25T19:48:21.178Z,12.70
2022-10-25T19:51:25.531Z,12.70
2022-10-25T19:54:30.190Z,12.70
2022-10-25T19:57:35.228Z,12.70
2022-10-25T20:00:40.193Z,12.70
2022-10-25T20:03:46.257Z,12.60
2022-10-25T20:06:50.471Z,12.60
2022-10-25T20:09:54.648Z,12.60
2022-10-25T20:12:59.061Z,12.50
2022-10-25T20:16:04.310Z,12.60
2022-10-25T20:19:12.102Z,12.50
2022-10-25T20:22:17.446Z,12.50
2022-10-25T20:25:21.693Z,12.50
2022-10-25T20:28:26.153Z,12.50
2022-10-25T20:31:32.786Z,12.50
2022-10-25T20:34:37.505Z,12.40
2022-10-25T20:37:41.894Z,12.40
2022-10-25T20:40:46.359Z,12.40
2022-10-25T20:43:53.067Z,12.40
2022-10-25T20:46:57.774Z,12.40
2022-10-25T20:50:02.254Z,12.40
2022-10-25T20:53:10.254Z,12.40
2022-10-25T20:56:17.322Z,12.30
2022-10-25T20:59:21.483Z,12.30
2022-10-25T21:02:26.034Z,12.30
2022-10-25T21:05:30.836Z,12.30
2022-10-25T21:08:36.533Z,12.30
2022-10-25T21:11:40.780Z,12.20
2022-10-25T21:14:45.320Z,12.20
2022-10-25T21:17:49.941Z,12.20
2022-10-25T21:20:59.690Z,12.20
2022-10-25T21:24:05.843Z,12.10
2022-10-25T21:27:10.494Z,12.10
2022-10-25T21:30:14.777Z,12.10
2022-10-25T21:33:19.299Z,12.10
2022-10-25T21:36:25.302Z,12.10
2022-10-25T21:39:29.890Z,12.00
2022-10-25T21:42:34.361Z,12.00
2022-10-25T21:45:42.146Z,12.00
2022-10-25T21:48:52.843Z,12.00
2022-10-25T21:51:56.856Z,12.00
2022-10-25T21:55:01.010Z,12.00
2022-10-25T21:58:05.463Z,12.00
2022-10-25T22:01:12.359Z,12.00
2022-10-25T22:04:17.097Z,12.00
2022-10-25T22:07:21.429Z,12.00
2022-10-25T22:10:26.259Z,12.00
2022-10-25T22:13:30.302Z,12.00
2022-10-25T22:16:35.013Z,12.00
2022-10-25T22:19:39.025Z,11.90
2022-10-25T22:22:43.402Z,11.90
2022-10-25T22:25:47.688Z,11.90
2022-10-25T22:28:56.921Z,11.90
2022-10-25T22:32:00.819Z,11.90
2022-10-25T22:35:05.719Z,11.90
2022-10-25T22:38:10.243Z,11.80
2022-10-25T22:41:20.137Z,11.80
2022-10-25T22:44:24.274Z,11.80
2022-10-25T22:47:28.568Z,11.80
2022-10-25T22:50:32.895Z,11.80
2022-10-25T22:53:38.193Z,11.70
2022-10-25T22:56:42.210Z,11.80
2022-10-25T22:59:46.855Z,11.80
2022-10-25T23:02:53.649Z,11.70
2022-10-25T23:05:59.487Z,11.70
2022-10-25T23:09:08.864Z,11.70
2022-10-25T23:12:13.326Z,11.70
2022-10-25T23:15:17.795Z,11.60
2022-10-25T23:18:22.283Z,11.60
2022-10-25T23:21:29.944Z,11.60
2022-10-25T23:24:34.563Z,11.60
2022-10-25T23:27:38.967Z,11.60
2022-10-25T23:30:44.003Z,11.60
2022-10-25T23:33:53.511Z,11.70
2022-10-25T23:36:58.006Z,11.60
2022-10-25T23:40:02.038Z,11.60
2022-10-25T23:43:06.629Z,11.60
2022-10-25T23:46:11.246Z,11.60
2022-10-25T23:49:15.802Z,11.60
2022-10-25T23:52:20.279Z,11.60
2022-10-25T23:55:24.921Z,11.60
2022-10-25T23:58:29.580Z,11.60
